DONNELLS (DON)

Elevation: 4835' · STANISLAUS R basin · Operator: US Bureau of Reclamation

Provisional data, subject to change.
Query executed Tuesday at 16:34:42   clock

Select a sensor type for a plot of data.
Note: Reservoir Flows are daily averages.

Earlier

Date STORAGE    RES CHG    OUTFLOW   
 AF   AF   CFS  
08/03/2014 59817 -277 205
08/04/2014 59653 -164 146
08/05/2014 59484 -169 187
08/06/2014 59307 -177 181
08/07/2014 59225 -82 159
08/08/2014 59062 -163 189
08/09/2014 58894 -168 154
08/10/2014 58690 -204 189
08/11/2014 58397 -293 225
08/12/2014 58133 -264 196
08/13/2014 57897 -236 188
08/14/2014 57723 -174 153
08/15/2014 57528 -195 179
08/16/2014 57366 -162 134
08/17/2014 57156 -210 183
08/18/2014 56913 -243 207
08/19/2014 56655 -258 172
08/20/2014 56438 -217 180
08/21/2014 56257 -181 155
08/22/2014 56048 -209 172
08/23/2014 55904 -144 136
08/24/2014 55743 -161 145
08/25/2014 55515 -228 191
08/26/2014 44295 -11220 153
08/27/2014 55096 10801 171
08/28/2014 54973 -123 119
08/29/2014 54726 -247 188
08/30/2014 54516 -210 167
08/31/2014 54334 -182 143
09/01/2014 54045 -289 213
09/02/2014 -- -- --

Later | Latest

Warning! This data is preliminary and subject to revision.

Download Data Now Download Data Now | Show DON Map | Plot DON Data | 1 Month DON Data | Real-Time DON Data | DON Info